Ana Sayfa
METAR-TAF:

METAR-TAF

Havaalanları :

Zahedan Havalimanı

Zahedan, İran

Enlem: 29-28N, Boylam: 060-53E, yükseklik: 1370 m

Güncel hava durumu gözlemi

Rapor saat 21:00 UTC de 24 dakika önce yapıldı.
Sakin rüzgar
Sıcaklık 18°C
Nem 49%
Basınç 1019 hPa
Görüş mesafesi 10 km veya daha fazla
1500 m altında bulut yok ve kümülonimbus yok

METAR: OIZH 242100Z 00000KT CAVOK 18/07 Q1019 A3009

Saat: 01:54 (21:24 UTC)

Tahmin

Rapor saat 17:30 UTC de 3 saat ve 54 dakika önce yapıldı.
Ayın 24'si saat 18 UTC'den ayın 25'si saat 24 UTC'ye kadar geçerli Tahmin
Rüzgar kuzeybatıdan 8 kt
Görüş mesafesi: 8000 m
Geçici
ayın 25'si saat 09 UTC'den ayın 25'si saat 15 UTC'ye kadar
Rüzgar kuzey/kuzeydoğudan 16 kt ve 26 kt'a kadar ani rüzgarlar

TAF: OIZH 241730Z 2418/2524 32008KT 8000 NSC TEMPO 2509/2515 03016G26KT

4.000'den fazla havaalanı için hava durumu gözlemleri ve tahminleri (METAR ve TAF raporları).

Kullanılabilir istasyonlar harita üzerinde sarı ve kırmızı noktalarla gösterilir.

İstasyonun adını görmek için fareyi noktanın üzerinde gezdirin.

Sonrasında hava gözlem ve tahminlerini görmek için tıklayın.

Haritayı değiştirmek için: yaklaştırmak için siyah artı işaretli yeşil düğmeye ve uzaklaştırmak için de eksi işaretli düğmeye hızla tıklayın; bitişik haritalar için yeşil okları kullanın.


METAR-TAF: